Famagusta, Cyprus
Current Conditions -  °F | °C
As of 8:20 AM on Tuesday 27 Jan 2015 (Local Time) from LCEN Reporting Station
Broken Clouds Broken Clouds  
Wind Chill: 39°   Ceiling: 20000
Heat Index: 43°   Visibility: 6mi
Dew Point: 39°   Wind: 7mph
Humidity: 87%   Direction: 280°W
Pressure: 30.06"   Gusts: NA
Location:  35.33°N, 34.07°E
Report Text: LCEN 270520Z 28006KT 9999 FEW025 BKN200 06/04 Q1018 NOSIG
Loading
Personal Weather Stations






























Interactive Weather Map New forecast layout! Learn more

10-Day Weather Forecast

Advertisements
Track Severe Weather on mobile